Time;durP1;ratioP1;P1;durP2;ratioP2;P2;SDS_P1;SDS_P2;PMS_P1;PMS_P2;Temp;Humidity;BMP_temperature;BMP_pressure;BME280_temperature;BME280_humidity;BME280_pressure;Samples;Min_cycle;Max_cycle;Signal;HPM_P1;HPM_P2
2020/12/20 00:00:18;;;;;;;13.98;3.20;;;;;;;8.28;100.00;101030.80;1773339;79;936263;-85
2020/12/20 00:02:53;;;;;;;12.87;3.80;;;;;;;8.28;100.00;101034.40;1783684;79;934733;-85
2020/12/20 00:05:25;;;;;;;12.50;3.73;;;;;;;8.35;100.00;101028.11;1785500;79;936774;-85
2020/12/20 00:07:55;;;;;;;15.33;3.73;;;;;;;8.26;100.00;101040.73;1771748;79;936906;-82
2020/12/20 00:10:26;;;;;;;17.33;3.83;;;;;;;8.33;100.00;101030.33;1783751;79;936560;-82
2020/12/20 00:12:56;;;;;;;12.63;3.43;;;;;;;8.60;100.00;101031.03;1792667;78;936724;-81
2020/12/20 00:15:26;;;;;;;17.07;3.60;;;;;;;8.64;100.00;101032.74;1783527;79;936783;-82
2020/12/20 00:17:57;;;;;;;17.17;3.70;;;;;;;8.63;100.00;101026.92;1792452;78;936987;-84
2020/12/20 00:20:27;;;;;;;14.93;3.53;;;;;;;8.70;100.00;101028.88;1782748;79;936620;-85
2020/12/20 00:22:57;;;;;;;18.23;3.97;;;;;;;8.60;100.00;101039.92;1793007;78;936652;-84
2020/12/20 00:25:27;;;;;;;15.07;3.63;;;;;;;8.76;100.00;101037.52;1782076;79;936679;-85
2020/12/20 00:27:57;;;;;;;14.80;3.27;;;;;;;8.60;100.00;101035.19;1792587;78;936957;-84
2020/12/20 00:30:29;;;;;;;23.47;4.00;;;;;;;8.51;100.00;101031.83;1782362;79;936853;-85
2020/12/20 00:32:59;;;;;;;15.03;3.10;;;;;;;8.53;100.00;101025.45;1792687;78;936553;-85
2020/12/20 00:35:29;;;;;;;19.03;3.57;;;;;;;8.62;100.00;101021.92;1783297;79;936647;-85
2020/12/20 00:37:59;;;;;;;15.40;3.63;;;;;;;8.58;100.00;101019.41;1803214;77;936634;-85
2020/12/20 00:40:29;;;;;;;16.20;3.50;;;;;;;8.61;100.00;101027.17;1785474;79;936630;-85
2020/12/20 00:43:02;;;;;;;14.78;3.87;;;;;;;8.52;100.00;101020.47;1769294;79;936776;-85
2020/12/20 00:45:32;;;;;;;14.20;3.73;;;;;;;8.37;100.00;101021.77;1785134;79;936733;-84
2020/12/20 00:48:02;;;;;;;17.67;3.87;;;;;;;8.48;100.00;101026.26;1771042;79;937059;-84
2020/12/20 00:50:32;;;;;;;13.20;3.80;;;;;;;8.38;100.00;101030.36;1823878;77;936612;-84
2020/12/20 00:53:02;;;;;;;18.48;5.25;;;;;;;8.36;100.00;101029.78;1810352;77;936567;-82
2020/12/20 00:55:32;;;;;;;15.37;3.60;;;;;;;8.37;100.00;101030.07;1823954;77;937181;-83
2020/12/20 00:58:02;;;;;;;12.78;5.15;;;;;;;8.29;100.00;101031.09;1811841;77;936551;-83
2020/12/20 01:00:32;;;;;;;15.00;3.47;;;;;;;8.13;100.00;101030.95;1824017;77;936820;-84
2020/12/20 01:03:02;;;;;;;12.50;2.63;;;;;;;8.18;100.00;101028.77;1812030;77;935510;-83
2020/12/20 01:05:31;;;;;;;12.33;2.67;;;;;;;8.33;100.00;101023.95;1823970;77;936787;-84
2020/12/20 01:08:01;;;;;;;12.90;3.12;;;;;;;8.34;100.00;101021.47;1811984;77;936593;-83
2020/12/20 01:10:31;;;;;;;14.83;2.33;;;;;;;8.37;100.00;101026.47;1823995;77;936626;-84
2020/12/20 01:13:01;;;;;;;12.97;3.33;;;;;;;8.63;100.00;101040.21;1811761;77;936799;-82
2020/12/20 01:15:31;;;;;;;18.93;3.10;;;;;;;8.63;100.00;101040.21;1823929;77;936594;-83
2020/12/20 01:18:01;;;;;;;17.23;3.00;;;;;;;8.54;100.00;101033.51;1811880;77;946648;-82
2020/12/20 01:20:31;;;;;;;11.07;2.63;;;;;;;8.66;100.00;101037.45;1814247;77;936632;-82
2020/12/20 01:23:01;;;;;;;15.85;3.05;;;;;;;8.61;100.00;101031.33;1802172;76;936614;-83
2020/12/20 01:25:31;;;;;;;13.73;2.40;;;;;;;8.76;100.00;101033.91;1814621;76;936640;-83
2020/12/20 01:28:01;;;;;;;11.30;3.12;;;;;;;8.83;100.00;101030.34;1803144;77;936554;-84
2020/12/20 01:30:31;;;;;;;16.87;2.80;;;;;;;8.81;100.00;101032.01;1814541;76;936590;-83
2020/12/20 01:33:00;;;;;;;15.63;2.90;;;;;;;8.85;100.00;101030.91;1802292;76;935484;-83
2020/12/20 01:35:30;;;;;;;14.27;3.37;;;;;;;8.88;100.00;101016.52;1815092;77;935663;-83
2020/12/20 01:38:00;;;;;;;10.85;2.45;;;;;;;8.93;100.00;101031.23;1802722;76;941764;-83
2020/12/20 01:40:30;;;;;;;7.10;2.17;;;;;;;8.97;100.00;101028.20;1814579;77;936735;-82
2020/12/20 01:43:00;;;;;;;11.80;2.37;;;;;;;9.05;100.00;101035.16;1803584;77;934490;-81
2020/12/20 01:45:30;;;;;;;12.23;2.40;;;;;;;9.04;100.00;101044.02;1814637;77;936857;-81
2020/12/20 01:48:00;;;;;;;13.72;2.22;;;;;;;9.01;100.00;101048.72;1803685;77;936604;-81
2020/12/20 01:50:30;;;;;;;12.93;2.50;;;;;;;9.01;100.00;101047.34;1815130;76;936640;-82
2020/12/20 01:53:00;;;;;;;11.07;2.27;;;;;;;9.04;100.00;101050.11;1803315;77;935706;-82
2020/12/20 01:55:31;;;;;;;7.63;2.40;;;;;;;9.10;100.00;101054.58;1814886;77;936530;-83
2020/12/20 01:58:01;;;;;;;12.45;2.05;;;;;;;9.03;100.00;101052.59;1803117;77;934823;-82
2020/12/20 02:00:31;;;;;;;11.77;2.77;;;;;;;9.04;100.00;101040.41;1814100;76;936791;-83
2020/12/20 02:03:01;;;;;;;10.90;2.00;;;;;;;9.08;100.00;101051.23;1803073;76;936545;-83
2020/12/20 02:05:31;;;;;;;12.13;2.10;;;;;;;8.97;100.00;101052.30;1814779;77;936705;-83
2020/12/20 02:08:01;;;;;;;10.33;2.47;;;;;;;9.00;100.00;101060.06;1802643;76;936698;-82
2020/12/20 02:10:30;;;;;;;9.97;2.10;;;;;;;8.96;100.00;101060.32;1815154;76;936503;-82
2020/12/20 02:13:04;;;;;;;10.25;1.95;;;;;;;9.00;100.00;101063.67;1803367;76;934637;-82
2020/12/20 02:15:33;;;;;;;13.73;2.23;;;;;;;8.97;100.00;101064.22;1814578;76;936672;-83
2020/12/20 02:18:03;;;;;;;8.93;2.10;;;;;;;8.93;100.00;101071.95;1802470;76;936868;-84
2020/12/20 02:20:33;;;;;;;10.03;2.03;;;;;;;8.89;100.00;101079.97;1814483;77;934675;-82
2020/12/20 02:23:03;;;;;;;12.45;2.10;;;;;;;8.83;100.00;101075.48;1802969;77;936619;-82
2020/12/20 02:25:33;;;;;;;7.20;1.83;;;;;;;8.91;100.00;101072.75;1814487;77;936613;-82
2020/12/20 02:28:03;;;;;;;9.38;1.77;;;;;;;8.75;100.00;101076.00;1802706;77;934581;-82
2020/12/20 02:30:33;;;;;;;14.37;2.27;;;;;;;8.82;100.00;101075.20;1826061;76;934568;-82
2020/12/20 02:33:02;;;;;;;7.70;1.42;;;;;;;8.67;100.00;101072.35;1805945;76;936727;-82
2020/12/20 02:35:32;;;;;;;9.93;1.83;;;;;;;8.81;100.00;101079.64;1814538;77;934557;-83
2020/12/20 02:38:02;;;;;;;12.20;2.20;;;;;;;8.70;100.00;101073.19;1802619;77;934530;-82
2020/12/20 02:40:35;;;;;;;8.50;2.03;;;;;;;8.67;100.00;101071.80;1814584;77;936096;-83
2020/12/20 02:43:05;;;;;;;10.18;2.17;;;;;;;8.67;100.00;101075.13;1802990;77;934735;-83
2020/12/20 02:45:35;;;;;;;11.70;2.40;;;;;;;8.57;100.00;101075.88;1814772;76;936737;-82
2020/12/20 02:48:05;;;;;;;9.73;2.20;;;;;;;8.60;100.00;101080.06;1802632;77;936557;-83
2020/12/20 02:50:35;;;;;;;8.87;1.70;;;;;;;8.49;100.00;101068.63;1814713;77;934508;-84
2020/12/20 02:53:05;;;;;;;12.15;2.27;;;;;;;8.48;100.00;101068.33;1802793;76;934591;-83
2020/12/20 02:55:35;;;;;;;11.30;1.77;;;;;;;8.55;100.00;101067.02;1813919;77;936578;-84
2020/12/20 02:58:05;;;;;;;11.53;2.33;;;;;;;8.52;100.00;101070.30;1803087;77;937092;-82
2020/12/20 03:00:36;;;;;;;11.67;2.37;;;;;;;8.50;100.00;101062.83;1814488;77;936478;-82
2020/12/20 03:03:06;;;;;;;9.20;2.10;;;;;;;8.62;100.00;101069.54;1803244;77;936626;-82
2020/12/20 03:05:36;;;;;;;9.30;2.37;;;;;;;8.65;100.00;101067.61;1814387;77;934494;-83
2020/12/20 03:08:06;;;;;;;9.28;2.60;;;;;;;8.64;100.00;101070.13;1802658;76;934557;-82
2020/12/20 03:10:36;;;;;;;17.67;2.37;;;;;;;8.63;100.00;101072.60;1814416;76;934642;-83
2020/12/20 03:13:06;;;;;;;13.03;2.30;;;;;;;8.58;100.00;101072.02;1802646;76;939632;-83
2020/12/20 03:15:38;;;;;;;11.03;2.10;;;;;;;8.58;100.00;101078.94;1814980;77;936783;-83
2020/12/20 03:18:08;;;;;;;7.97;2.10;;;;;;;8.65;100.00;101076.77;1803182;76;936516;-83
2020/12/20 03:20:40;;;;;;;10.00;1.80;;;;;;;8.68;100.00;101072.64;1814441;77;934537;-83
2020/12/20 03:23:10;;;;;;;8.70;1.70;;;;;;;8.62;100.00;101075.92;1803120;76;936686;-83
2020/12/20 03:25:39;;;;;;;10.33;1.80;;;;;;;8.57;100.00;101075.04;1814618;76;932844;-83
2020/12/20 03:28:09;;;;;;;6.15;1.75;;;;;;;8.52;100.00;101082.76;1802845;77;936795;-83
2020/12/20 03:30:39;;;;;;;8.07;2.03;;;;;;;8.49;100.00;101083.84;1814755;76;932623;-83
2020/12/20 03:33:09;;;;;;;7.17;1.83;;;;;;;8.37;100.00;101080.44;1802732;77;939424;-84
2020/12/20 03:35:39;;;;;;;8.13;1.67;;;;;;;8.55;100.00;101084.18;1814593;76;934441;-84
2020/12/20 03:38:09;;;;;;;9.03;1.47;;;;;;;8.32;100.00;101081.78;1802776;76;934546;-85
2020/12/20 03:40:39;;;;;;;5.50;2.00;;;;;;;8.32;100.00;101081.78;1814409;77;934464;-83
2020/12/20 03:43:08;;;;;;;9.73;2.03;;;;;;;8.43;100.00;101082.97;1802542;76;934446;-84
2020/12/20 03:45:38;;;;;;;8.50;1.30;;;;;;;8.39;100.00;101085.98;1814424;76;934579;-83
2020/12/20 03:48:08;;;;;;;8.65;1.72;;;;;;;8.41;100.00;101078.80;1802705;76;934525;-83
2020/12/20 03:50:38;;;;;;;8.07;1.43;;;;;;;8.39;100.00;101078.22;1814202;77;934556;-83
2020/12/20 03:53:08;;;;;;;8.68;1.20;;;;;;;8.38;100.00;101080.19;1803023;76;934484;-83
2020/12/20 03:55:38;;;;;;;5.73;1.27;;;;;;;8.35;100.00;101080.69;1815035;76;934545;-84
2020/12/20 03:58:08;;;;;;;7.58;1.10;;;;;;;8.40;100.00;101071.59;1802602;77;934472;-83
2020/12/20 04:00:37;;;;;;;7.20;1.60;;;;;;;8.45;100.00;101077.17;1815362;76;934460;-83
2020/12/20 04:03:07;;;;;;;7.33;1.40;;;;;;;8.49;100.00;101075.00;1802445;77;934554;-84
2020/12/20 04:05:37;;;;;;;4.20;1.10;;;;;;;8.46;100.00;101075.53;1814024;77;934520;-83
2020/12/20 04:08:07;;;;;;;6.93;1.80;;;;;;;8.40;100.00;101076.58;1802623;76;934504;-81
2020/12/20 04:10:37;;;;;;;8.67;1.47;;;;;;;8.38;100.00;101085.72;1814478;77;934710;-82
2020/12/20 04:13:07;;;;;;;6.03;1.47;;;;;;;8.41;100.00;101082.95;1802324;76;944455;-82
2020/12/20 04:15:37;;;;;;;8.00;1.67;;;;;;;8.45;100.00;101084.09;1814870;77;934732;-82
2020/12/20 04:18:06;;;;;;;8.15;1.80;;;;;;;8.56;100.00;101089.98;1802737;76;933427;-82
2020/12/20 04:20:36;;;;;;;4.73;1.23;;;;;;;8.56;100.00;101107.42;1815094;76;934611;-82
2020/12/20 04:23:06;;;;;;;6.00;1.82;;;;;;;8.62;100.00;101156.77;1802965;77;934702;-82
2020/12/20 04:25:36;;;;;;;4.80;1.10;;;;;;;8.57;100.00;101153.41;1814537;77;934726;-82
2020/12/20 04:28:06;;;;;;;5.83;1.03;;;;;;;8.49;100.00;101143.36;1802694;76;934548;-83
2020/12/20 04:30:36;;;;;;;5.50;1.17;;;;;;;8.50;100.00;101145.04;1814959;77;934467;-84
2020/12/20 04:33:06;;;;;;;6.90;1.92;;;;;;;8.49;100.00;101146.97;1802484;76;934458;-84
2020/12/20 04:35:36;;;;;;;8.53;1.43;;;;;;;8.29;100.00;101142.66;1818616;76;933516;-84
2020/12/20 04:38:07;;;;;;;2.90;0.80;;;;;;;8.30;100.00;101139.34;1813784;76;933275;-84
2020/12/20 04:40:42;;;;;;;4.57;1.30;;;;;;;8.34;100.00;101139.94;1814599;77;934517;-84
2020/12/20 04:43:13;;;;;;;3.90;0.80;;;;;;;8.29;100.00;101145.94;1802934;77;934625;-84
2020/12/20 04:45:44;;;;;;;4.90;1.07;;;;;;;8.27;100.00;101146.19;1815014;77;932562;-84
2020/12/20 04:48:17;;;;;;;4.03;1.03;;;;;;;8.32;100.00;101145.44;1802369;77;934656;-83
2020/12/20 04:50:48;;;;;;;5.77;0.80;;;;;;;8.26;100.00;101143.70;1814367;77;932658;-84
2020/12/20 04:53:18;;;;;;;1.60;0.87;;;;;;;8.28;100.00;101126.27;1803500;77;934603;-84
2020/12/20 04:55:51;;;;;;;2.80;0.60;;;;;;;8.22;100.00;101110.16;1814937;76;932634;-83
2020/12/20 04:58:21;;;;;;;4.60;0.70;;;;;;;8.24;100.00;101118.50;1814445;77;934779;-83
2020/12/20 05:00:52;;;;;;;1.13;0.80;;;;;;;8.13;100.00;101127.78;1802256;77;934611;-83
2020/12/20 05:03:22;;;;;;;6.17;0.90;;;;;;;8.17;100.00;101128.93;1814993;76;934530;-83
2020/12/20 05:05:53;;;;;;;4.10;0.83;;;;;;;8.06;100.00;101138.24;1815191;77;932770;-83
2020/12/20 05:08:24;;;;;;;4.50;0.63;;;;;;;8.20;100.00;101139.50;1814671;77;934639;-84
2020/12/20 05:10:55;;;;;;;5.53;1.00;;;;;;;8.27;100.00;101136.50;1808602;76;934471;-82
2020/12/20 05:13:39;;;;;;;3.33;1.03;;;;;;;8.11;100.00;101129.16;1803416;77;934570;-84
2020/12/20 05:16:11;;;;;;;2.55;0.80;;;;;;;8.14;100.00;101133.62;1803167;77;934936;-83
2020/12/20 05:18:45;;;;;;;1.97;0.60;;;;;;;8.11;100.00;101134.15;1782583;79;932517;-83
2020/12/20 05:21:18;;;;;;;4.33;0.70;;;;;;;8.15;100.00;101139.45;1770942;79;934731;-85
2020/12/20 05:23:47;;;;;;;3.67;1.27;;;;;;;8.21;100.00;101137.57;1783569;78;932732;-83
2020/12/20 05:26:17;;;;;;;4.20;1.13;;;;;;;8.23;100.00;101140.34;1792719;78;934456;-84
2020/12/20 05:28:47;;;;;;;2.67;0.63;;;;;;;8.15;100.00;101127.53;1784079;79;932732;-83
2020/12/20 05:31:18;;;;;;;3.50;0.73;;;;;;;8.16;100.00;101125.06;1803190;77;933576;-84
2020/12/20 05:33:49;;;;;;;3.43;0.90;;;;;;;8.20;100.00;101121.51;1785463;79;932573;-83
2020/12/20 05:36:27;;;;;;;5.00;1.10;;;;;;;8.17;100.00;101126.16;1783894;79;934516;-83
2020/12/20 05:39:14;;;;;;;2.83;0.80;;;;;;;8.15;100.00;101124.23;1773774;79;934563;-83
2020/12/20 05:41:43;;;;;;;3.03;0.97;;;;;;;8.17;100.00;101133.66;1783864;79;932628;-82
2020/12/20 05:44:23;;;;;;;1.90;0.63;;;;;;;8.11;100.00;101133.31;1773413;79;934672;-82
2020/12/20 05:46:54;;;;;;;4.67;0.90;;;;;;;8.12;100.00;101137.21;1810081;76;934705;-81
2020/12/20 05:49:25;;;;;;;2.98;1.00;;;;;;;8.07;100.00;101128.02;1802648;76;934566;-83
2020/12/20 05:52:07;;;;;;;3.30;0.90;;;;;;;8.09;100.00;101123.88;1802885;77;934716;-82
2020/12/20 05:54:38;;;;;;;4.63;0.80;;;;;;;8.10;100.00;101130.25;1814677;77;934730;-82
2020/12/20 05:57:16;;;;;;;4.03;0.62;;;;;;;8.05;100.00;101128.27;1802852;76;934577;-82
2020/12/20 05:59:47;;;;;;;6.10;1.07;;;;;;;8.00;100.00;101136.52;1814584;77;932796;-83
2020/12/20 06:02:18;;;;;;;6.50;0.93;;;;;;;8.06;100.00;101135.48;1802964;76;934598;-83
2020/12/20 06:04:48;;;;;;;5.17;0.80;;;;;;;7.97;100.00;101135.66;1814996;77;932452;-84
2020/12/20 06:07:20;;;;;;;1.90;0.43;;;;;;;7.99;100.00;101145.09;1802457;77;956112;-83
2020/12/20 06:09:55;;;;;;;2.33;0.70;;;;;;;7.93;100.00;101139.20;1814932;77;932677;-84
2020/12/20 06:12:28;;;;;;;3.23;0.77;;;;;;;7.86;100.00;101143.58;1815021;77;934599;-83
2020/12/20 06:15:00;;;;;;;2.70;0.70;;;;;;;7.76;100.00;101137.92;1802906;76;934564;-83
2020/12/20 06:17:30;;;;;;;0.93;0.43;;;;;;;7.72;100.00;101144.52;1814695;77;934549;-83
2020/12/20 06:20:02;;;;;;;1.57;0.40;;;;;;;7.76;100.00;101152.59;1802635;77;934714;-83
2020/12/20 06:22:33;;;;;;;2.50;0.90;;;;;;;7.66;100.00;101159.37;1814620;77;934559;-83
2020/12/20 06:25:06;;;;;;;2.52;0.72;;;;;;;7.54;100.00;101157.84;1803186;77;934613;-84
2020/12/20 06:27:41;;;;;;;3.53;0.60;;;;;;;7.62;100.00;101162.91;1814852;77;934932;-84
2020/12/20 06:30:11;;;;;;;3.80;1.05;;;;;;;7.55;100.00;101158.97;1802057;77;934427;-83
2020/12/20 06:32:44;;;;;;;2.33;0.50;;;;;;;7.65;100.00;101163.25;1814766;77;932425;-83
2020/12/20 06:35:17;;;;;;;1.43;0.47;;;;;;;7.46;100.00;101167.42;1803501;77;934591;-84
2020/12/20 06:37:48;;;;;;;3.00;0.73;;;;;;;7.61;100.00;101170.94;1814741;76;932534;-84
2020/12/20 06:40:23;;;;;;;1.97;0.50;;;;;;;7.43;100.00;101169.87;1803251;77;934668;-85
2020/12/20 06:42:54;;;;;;;2.53;0.70;;;;;;;7.49;100.00;101179.34;1813944;77;933113;-84
2020/12/20 06:45:27;;;;;;;1.67;0.70;;;;;;;7.58;100.00;101181.10;1814764;77;934636;-84
2020/12/20 06:48:01;;;;;;;2.00;0.80;;;;;;;7.58;100.00;101187.47;1802912;77;934678;-83
2020/12/20 06:50:46;;;;;;;1.30;0.50;;;;;;;7.58;100.00;101186.63;1814618;77;933405;-83
2020/12/20 06:53:17;;;;;;;2.13;0.40;;;;;;;7.46;100.00;101196.44;1803699;77;934131;-84
2020/12/20 06:55:48;;;;;;;2.17;0.50;;;;;;;7.55;100.00;101194.06;1815133;76;932724;-83
2020/12/20 06:58:19;;;;;;;3.50;0.60;;;;;;;7.47;100.00;101194.52;1802884;76;934501;-84
2020/12/20 07:00:54;;;;;;;2.03;0.63;;;;;;;7.56;100.00;101195.20;1814460;77;932789;-84
2020/12/20 07:03:38;;;;;;;2.20;0.57;;;;;;;7.65;100.00;101202.50;1815033;77;934531;-84
2020/12/20 07:06:13;;;;;;;1.90;0.70;;;;;;;7.68;100.00;101193.14;1803168;76;934701;-85
2020/12/20 07:08:45;;;;;;;4.27;0.80;;;;;;;7.79;100.00;101189.39;1814458;76;932724;-82
2020/12/20 07:11:22;;;;;;;3.33;0.60;;;;;;;7.81;100.00;101183.61;1802986;76;934501;-83
2020/12/20 07:13:55;;;;;;;2.00;0.50;;;;;;;7.77;100.00;101190.21;1815034;76;932702;-82
2020/12/20 07:16:27;;;;;;;3.83;1.30;;;;;;;7.76;100.00;101189.08;1814923;76;934804;-84
2020/12/20 07:19:01;;;;;;;3.43;0.70;;;;;;;7.65;100.00;101193.66;1802305;76;934792;-82
2020/12/20 07:22:03;;;;;;;2.93;1.20;;;;;;;7.71;100.00;101198.14;1815147;77;934607;-82
2020/12/20 07:24:34;;;;;;;6.33;1.00;;;;;;;7.59;100.00;101199.37;1814428;76;934534;-85
2020/12/20 07:27:07;;;;;;;1.92;1.00;;;;;;;7.71;100.00;101206.44;1803872;76;944559;-84
2020/12/20 07:29:38;;;;;;;3.93;0.67;;;;;;;7.73;100.00;101205.65;1815076;77;934051;-85
2020/12/20 07:32:08;;;;;;;2.53;1.00;;;;;;;7.77;100.00;101212.33;1803386;77;934527;-85
2020/12/20 07:34:39;;;;;;;2.50;0.80;;;;;;;7.69;100.00;101203.66;1814558;77;934760;-85
2020/12/20 07:37:10;;;;;;;3.20;0.72;;;;;;;7.74;100.00;101212.02;1802881;76;934710;-84
2020/12/20 07:39:40;;;;;;;2.80;0.77;;;;;;;7.77;100.00;101209.56;1814434;76;932588;-84
2020/12/20 07:42:10;;;;;;;3.63;0.90;;;;;;;7.68;100.00;101208.89;1802738;76;934994;-84
2020/12/20 07:44:40;;;;;;;3.97;1.03;;;;;;;7.62;100.00;101214.05;1814332;77;932902;-85
2020/12/20 07:47:14;;;;;;;2.62;0.75;;;;;;;7.58;100.00;101201.30;1803180;76;934641;-84
2020/12/20 07:49:44;;;;;;;1.77;0.67;;;;;;;7.54;100.00;101208.43;1815406;76;932737;-85
2020/12/20 07:52:15;;;;;;;2.87;0.80;;;;;;;7.53;100.00;101210.90;1802893;76;934439;-85
2020/12/20 07:54:45;;;;;;;4.37;1.20;;;;;;;7.41;100.00;101219.02;1814638;77;932499;-83
2020/12/20 07:57:19;;;;;;;2.60;0.73;;;;;;;7.41;100.00;101221.23;1803291;76;934525;-83
2020/12/20 07:59:50;;;;;;;5.13;0.70;;;;;;;7.44;100.00;101220.75;1814434;77;932650;-85
2020/12/20 08:02:22;;;;;;;3.83;0.75;;;;;;;7.47;100.00;101220.77;1814996;77;934496;-85
2020/12/20 08:04:54;;;;;;;3.03;0.67;;;;;;;7.38;100.00;101224.52;1814899;77;932670;-84
2020/12/20 08:07:23;;;;;;;2.90;0.80;;;;;;;7.35;100.00;101230.57;1814373;76;934586;-85
2020/12/20 08:09:56;;;;;;;2.80;0.73;;;;;;;7.33;100.00;101228.05;1813626;77;934659;-84
2020/12/20 08:12:26;;;;;;;3.03;0.70;;;;;;;7.27;100.00;101229.05;1803461;77;934606;-85
2020/12/20 08:15:05;;;;;;;3.20;0.70;;;;;;;7.27;100.00;101233.20;1803328;76;934751;-83
2020/12/20 08:17:35;;;;;;;5.47;0.93;;;;;;;7.30;100.00;101238.23;1814801;77;934534;-86
2020/12/20 08:20:06;;;;;;;4.85;0.80;;;;;;;7.34;100.00;101241.33;1802947;77;935095;-84
2020/12/20 08:22:47;;;;;;;4.23;0.80;;;;;;;7.33;100.00;101247.94;1815186;77;934794;-84
2020/12/20 08:25:18;;;;;;;3.93;0.73;;;;;;;7.16;100.00;101242.44;1802767;76;934504;-85
2020/12/20 08:27:48;;;;;;;4.50;0.90;;;;;;;7.14;100.00;101252.08;1815078;77;932858;-86
2020/12/20 08:30:18;;;;;;;2.97;0.77;;;;;;;7.20;100.00;101256.58;1802449;76;934546;-77
2020/12/20 08:32:48;;;;;;;3.73;0.80;;;;;;;7.21;100.00;101252.19;1815305;77;932603;-77
2020/12/20 08:35:21;;;;;;;4.70;0.80;;;;;;;7.12;100.00;101255.09;1802966;77;934463;-78
2020/12/20 08:37:56;;;;;;;4.77;1.10;;;;;;;7.07;100.00;101258.30;1815039;77;932524;-77
2020/12/20 08:40:34;;;;;;;2.20;0.83;;;;;;;7.09;100.00;101267.19;1814402;77;934632;-77
2020/12/20 08:43:04;;;;;;;3.43;0.87;;;;;;;7.14;100.00;101268.12;1803244;77;934455;-77
2020/12/20 08:45:35;;;;;;;4.90;0.73;;;;;;;7.12;100.00;101269.44;1814471;76;934612;-78
2020/12/20 08:48:05;;;;;;;4.25;0.85;;;;;;;7.06;100.00;101271.84;1802937;77;934554;-78
2020/12/20 08:50:35;;;;;;;3.60;0.80;;;;;;;6.97;100.00;101277.49;1814237;77;934567;-78
2020/12/20 08:53:08;;;;;;;4.83;1.10;;;;;;;6.89;100.00;101280.10;1803117;76;934685;-78
2020/12/20 08:55:38;;;;;;;4.83;0.97;;;;;;;6.96;100.00;101283.55;1815067;76;934603;-78
2020/12/20 08:58:09;;;;;;;2.70;0.78;;;;;;;7.07;100.00;101279.86;1802555;76;934467;-78
2020/12/20 09:00:39;;;;;;;5.20;0.80;;;;;;;7.08;100.00;101280.16;1814864;77;932612;-77
2020/12/20 09:03:09;;;;;;;3.63;1.13;;;;;;;6.98;100.00;101280.52;1802726;77;934463;-77
2020/12/20 09:05:38;;;;;;;10.93;2.30;;;;;;;6.95;100.00;101285.17;1814738;77;934673;-78
2020/12/20 09:08:08;;;;;;;7.95;1.22;;;;;;;7.08;100.00;101283.47;1802439;76;936769;-78
2020/12/20 09:10:38;;;;;;;4.53;1.12;;;;;;;7.21;100.00;101283.97;1814489;77;934810;-78
2020/12/20 09:13:09;;;;;;;3.53;0.70;;;;;;;7.03;100.00;101291.66;1803162;76;935120;-78
2020/12/20 09:15:41;;;;;;;5.83;1.20;;;;;;;7.18;100.00;101285.02;1815188;77;932547;-77
2020/12/20 09:18:18;;;;;;;3.70;1.00;;;;;;;7.27;100.00;101293.98;1802805;76;934460;-79
2020/12/20 09:20:49;;;;;;;4.30;1.10;;;;;;;7.36;100.00;101292.20;1814499;76;932653;-77
2020/12/20 09:23:21;;;;;;;7.40;1.30;;;;;;;7.39;100.00;101299.44;1814549;76;934600;-77
2020/12/20 09:25:51;;;;;;;4.00;1.00;;;;;;;7.39;100.00;101302.74;1814463;77;932601;-79
2020/12/20 09:28:24;;;;;;;3.93;0.90;;;;;;;7.62;100.00;101274.33;1814641;77;934540;-77
2020/12/20 09:30:56;;;;;;;5.77;1.40;;;;;;;7.77;100.00;101299.44;1810297;77;934629;-78
2020/12/20 09:33:28;;;;;;;4.33;1.27;;;;;;;7.95;100.00;101304.37;1803688;77;934550;-82
2020/12/20 09:36:03;;;;;;;4.58;1.00;;;;;;;7.93;100.00;101311.53;1803395;76;934578;-82
2020/12/20 09:38:39;;;;;;;9.07;1.50;;;;;;;8.06;100.00;101322.22;1814933;77;933830;-82
2020/12/20 09:41:12;;;;;;;4.15;1.05;;;;;;;8.14;100.00;101317.62;1803148;77;934716;-82
2020/12/20 09:43:42;;;;;;;9.07;1.20;;;;;;;8.15;100.00;101323.45;1814984;77;932868;-81
2020/12/20 09:46:19;;;;;;;6.97;1.50;;;;;;;8.18;100.00;101327.07;1802920;76;934994;-83
2020/12/20 09:48:50;;;;;;;6.53;1.30;;;;;;;8.19;100.00;101332.06;1815188;77;933038;-82
2020/12/20 09:51:22;;;;;;;8.27;1.80;;;;;;;8.03;100.00;101326.89;1814116;77;934492;-85
2020/12/20 09:53:53;;;;;;;5.53;1.30;;;;;;;8.12;100.00;101326.73;1815048;76;932833;-85
2020/12/20 09:56:23;;;;;;;5.53;1.60;;;;;;;8.11;100.00;101319.52;1814349;77;934515;-85
2020/12/20 09:58:54;;;;;;;10.70;2.10;;;;;;;8.20;100.00;101330.98;1812972;77;934570;-82
2020/12/20 10:01:26;;;;;;;7.83;1.80;;;;;;;8.22;100.00;101324.08;1803713;77;936702;-82
2020/12/20 10:03:56;;;;;;;9.60;2.30;;;;;;;8.32;100.00;101333.63;1800788;77;934729;-84
2020/12/20 10:06:26;;;;;;;8.70;1.97;;;;;;;8.32;100.00;101333.09;1784612;79;934517;-85
2020/12/20 10:08:56;;;;;;;5.83;1.60;;;;;;;8.31;100.00;101334.18;1772238;79;934544;-82
2020/12/20 10:11:26;;;;;;;8.27;2.30;;;;;;;8.42;100.00;101337.92;1784403;79;934698;-86
2020/12/20 10:13:57;;;;;;;10.10;2.03;;;;;;;8.46;100.00;101332.15;1772283;79;934592;-84
2020/12/20 10:16:28;;;;;;;9.10;1.90;;;;;;;8.46;100.00;101332.15;1785664;79;936741;-83
2020/12/20 10:18:58;;;;;;;8.13;1.77;;;;;;;8.52;100.00;101333.86;1771987;79;934578;-85
2020/12/20 10:21:28;;;;;;;9.07;1.90;;;;;;;8.56;100.00;101326.16;1785564;79;933449;-84
2020/12/20 10:23:58;;;;;;;5.43;1.10;;;;;;;8.64;100.00;101331.23;1772387;79;934507;-81
2020/12/20 10:26:28;;;;;;;7.63;1.50;;;;;;;8.65;100.00;101330.69;1786152;79;934651;-85
2020/12/20 10:28:58;;;;;;;4.70;1.37;;;;;;;8.63;100.00;101328.20;1772625;79;934526;-82
2020/12/20 10:31:28;;;;;;;4.57;1.40;;;;;;;8.70;100.00;101330.74;1785887;79;934614;-84
2020/12/20 10:33:57;;;;;;;6.47;1.50;;;;;;;8.90;100.00;101325.40;1772249;79;934688;-85
2020/12/20 10:36:27;;;;;;;6.37;1.33;;;;;;;8.95;100.00;101325.45;1786744;79;934647;-86
2020/12/20 10:38:57;;;;;;;4.97;1.30;;;;;;;8.95;100.00;101313.53;1773420;79;934586;-84
2020/12/20 10:41:27;;;;;;;3.03;1.23;;;;;;;9.02;100.00;101319.16;1786092;79;934775;-84
2020/12/20 10:43:57;;;;;;;4.73;1.53;;;;;;;9.10;100.00;101318.67;1772134;79;933818;-86
2020/12/20 10:46:27;;;;;;;5.83;1.50;;;;;;;9.12;100.00;101325.32;1786171;79;933461;-80
2020/12/20 10:48:57;;;;;;;4.27;1.43;;;;;;;9.13;100.00;101311.75;1770907;79;934697;-85
2020/12/20 10:51:27;;;;;;;5.73;1.50;;;;;;;9.17;100.00;101307.91;1789060;78;934610;-84
2020/12/20 10:53:57;;;;;;;6.47;1.60;;;;;;;9.15;100.00;101312.34;1777519;78;934530;-84
2020/12/20 10:56:27;;;;;;;5.80;1.30;;;;;;;9.22;100.00;101307.41;1789347;78;934954;-85
2020/12/20 10:58:57;;;;;;;7.87;1.53;;;;;;;9.22;100.00;101303.24;1778044;78;934587;-81
2020/12/20 11:01:27;;;;;;;6.20;2.00;;;;;;;9.38;100.00;101299.48;1789278;78;934514;-83
2020/12/20 11:03:56;;;;;;;8.73;2.43;;;;;;;9.32;100.00;101295.02;1777839;78;934592;-83
2020/12/20 11:06:27;;;;;;;9.83;1.73;;;;;;;9.38;100.00;101301.41;1785416;79;934579;-82
2020/12/20 11:08:56;;;;;;;7.60;1.57;;;;;;;9.44;100.00;101301.75;1772504;79;934603;-82
2020/12/20 11:11:31;;;;;;;10.87;2.10;;;;;;;9.48;100.00;101303.72;1786917;79;934512;-84
2020/12/20 11:14:01;;;;;;;7.10;1.60;;;;;;;9.50;100.00;101308.98;1773383;79;935312;-85
2020/12/20 11:16:31;;;;;;;7.20;1.50;;;;;;;9.48;100.00;101309.81;1786926;79;934525;-85
2020/12/20 11:19:01;;;;;;;9.30;2.25;;;;;;;9.53;100.00;101307.08;1773345;79;934854;-84
2020/12/20 11:21:31;;;;;;;8.70;2.20;;;;;;;9.57;100.00;101310.98;1825334;77;934445;-83
2020/12/20 11:24:01;;;;;;;6.95;1.92;;;;;;;9.54;100.00;101305.41;1814048;77;934974;-83
2020/12/20 11:26:31;;;;;;;8.80;1.77;;;;;;;9.57;100.00;101305.44;1825952;77;934604;-84
2020/12/20 11:29:01;;;;;;;9.70;2.08;;;;;;;9.64;100.00;101306.58;1804876;77;934631;-84
2020/12/20 11:31:31;;;;;;;9.03;1.93;;;;;;;9.69;100.00;101301.06;1817048;77;934597;-83